Time;durP1;ratioP1;P1;durP2;ratioP2;P2;SDS_P1;SDS_P2;PMS_P1;PMS_P2;Temp;Humidity;BMP_temperature;BMP_pressure;BME280_temperature;BME280_humidity;BME280_pressure;Samples;Min_cycle;Max_cycle;Signal;HPM_P1;HPM_P2
2021/06/17 00:00:16;;;;;;;3.60;3.28;;;;;;;;;;5091809;28;20483;-65
2021/06/17 00:02:44;;;;;;;3.83;3.50;;;;;;;;;;5091463;28;20083;-65
2021/06/17 00:05:13;;;;;;;3.80;3.40;;;;;;;;;;5091148;28;20075;-64
2021/06/17 00:07:40;;;;;;;6.50;3.53;;;;;;;;;;5090392;28;20287;-65
2021/06/17 00:10:13;;;;;;;7.25;3.78;;;;;;;;;;5090412;28;20090;-65
2021/06/17 00:12:39;;;;;;;6.00;3.58;;;;;;;;;;5090949;28;20487;-65
2021/06/17 00:15:08;;;;;;;4.13;3.72;;;;;;;;;;5085352;28;20491;-65
2021/06/17 00:17:36;;;;;;;6.85;3.88;;;;;;;;;;5075282;28;20144;-65
2021/06/17 00:20:04;;;;;;;4.20;3.22;;;;;;;;;;5074391;28;20522;-64
2021/06/17 00:22:30;;;;;;;5.60;3.53;;;;;;;;;;5075248;28;20479;-65
2021/06/17 00:24:57;;;;;;;4.40;3.72;;;;;;;;;;5075110;28;20491;-64
2021/06/17 00:27:23;;;;;;;5.88;3.60;;;;;;;;;;5074278;28;20086;-65
2021/06/17 00:29:50;;;;;;;5.07;3.53;;;;;;;;;;5074011;28;20096;-65
2021/06/17 00:32:16;;;;;;;7.60;4.07;;;;;;;;;;5075232;28;20084;-65
2021/06/17 00:34:43;;;;;;;6.07;3.35;;;;;;;;;;5074963;28;20118;-65
2021/06/17 00:37:09;;;;;;;4.93;3.83;;;;;;;;;;5075232;28;20076;-65
2021/06/17 00:39:37;;;;;;;4.85;3.60;;;;;;;;;;5074961;28;20132;-65
2021/06/17 00:42:04;;;;;;;6.60;3.63;;;;;;;;;;5075067;28;20080;-65
2021/06/17 00:44:31;;;;;;;4.00;3.50;;;;;;;;;;5074810;28;20486;-64
2021/06/17 00:46:57;;;;;;;4.93;3.72;;;;;;;;;;5075043;28;20419;-65
2021/06/17 00:49:24;;;;;;;5.47;3.30;;;;;;;;;;5074908;28;20568;-64
2021/06/17 00:51:50;;;;;;;3.72;3.42;;;;;;;;;;5074490;28;20084;-65
2021/06/17 00:54:33;;;;;;;5.70;3.75;;;;;;;;;;5073591;28;20090;-64
2021/06/17 00:57:07;;;;;;;3.73;3.43;;;;;;;;;;5073886;28;20537;-64
2021/06/17 00:59:35;;;;;;;4.10;3.60;;;;;;;;;;5074600;28;20052;-65
2021/06/17 01:02:02;;;;;;;5.53;3.20;;;;;;;;;;5073234;28;20084;-64
2021/06/17 01:04:29;;;;;;;5.00;4.07;;;;;;;;;;5073126;28;20079;-65
2021/06/17 01:06:56;;;;;;;4.18;3.58;;;;;;;;;;5093619;28;20466;-66
2021/06/17 01:09:50;;;;;;;4.45;4.05;;;;;;;;;;5093571;28;20079;-65
2021/06/17 01:12:25;;;;;;;;;;;;;;;;;;5079245;28;20483;-65
2021/06/17 01:14:56;;;;;;;4.05;3.65;;;;;;;;;;5074590;28;19927;-65
2021/06/17 01:17:23;;;;;;;4.15;3.28;;;;;;;;;;5057036;28;20481;-65
2021/06/17 01:20:05;;;;;;;6.90;4.15;;;;;;;;;;5073021;28;20083;-65
2021/06/17 01:23:00;;;;;;;5.95;3.80;;;;;;;;;;5072905;28;20083;-64
2021/06/17 01:25:44;;;;;;;5.85;3.90;;;;;;;;;;5084494;28;20490;-65
2021/06/17 01:28:13;;;;;;;5.15;3.92;;;;;;;;;;5094299;28;20080;-65
2021/06/17 01:30:53;;;;;;;6.65;3.95;;;;;;;;;;5066956;28;20083;-65
2021/06/17 01:33:20;;;;;;;6.95;3.60;;;;;;;;;;5093024;28;20113;-65
2021/06/17 01:35:48;;;;;;;6.63;3.63;;;;;;;;;;5076266;28;20083;-65
2021/06/17 01:38:17;;;;;;;4.32;3.72;;;;;;;;;;5076237;28;20067;-65
2021/06/17 01:40:45;;;;;;;3.85;3.45;;;;;;;;;;5093192;28;20196;-66
2021/06/17 01:43:11;;;;;;;5.55;4.70;;;;;;;;;;5076084;28;20075;-65
2021/06/17 01:45:38;;;;;;;6.70;3.88;;;;;;;;;;5076037;28;20087;-66
2021/06/17 01:48:05;;;;;;;4.68;3.70;;;;;;;;;;5076138;28;20083;-65
2021/06/17 01:50:32;;;;;;;6.38;4.25;;;;;;;;;;5076103;28;20076;-65
2021/06/17 01:52:59;;;;;;;5.45;4.10;;;;;;;;;;5092635;28;20101;-63
2021/06/17 01:55:34;;;;;;;4.72;3.83;;;;;;;;;;5092615;28;20414;-65
2021/06/17 01:58:05;;;;;;;7.03;3.90;;;;;;;;;;5092810;28;20083;-64
2021/06/17 02:00:32;;;;;;;7.30;3.90;;;;;;;;;;5085084;28;20060;-65
2021/06/17 02:03:00;;;;;;;5.68;4.00;;;;;;;;;;5055669;28;20083;-64
2021/06/17 02:05:27;;;;;;;4.85;3.38;;;;;;;;;;5055652;28;20071;-65
2021/06/17 02:07:53;;;;;;;4.70;4.00;;;;;;;;;;5072211;28;20080;-65
2021/06/17 02:10:20;;;;;;;3.88;3.33;;;;;;;;;;5072552;28;20076;-65
2021/06/17 02:12:47;;;;;;;5.97;3.88;;;;;;;;;;5055323;28;20079;-65
2021/06/17 02:15:15;;;;;;;5.07;3.88;;;;;;;;;;5055420;28;20050;-65
2021/06/17 02:17:44;;;;;;;6.00;3.88;;;;;;;;;;5055716;28;20127;-65
2021/06/17 02:20:14;;;;;;;4.95;4.15;;;;;;;;;;5078757;28;20067;-65
2021/06/17 02:22:42;;;;;;;7.30;3.65;;;;;;;;;;5093099;28;20088;-66
2021/06/17 02:25:09;;;;;;;5.25;4.05;;;;;;;;;;5093370;28;20477;-66
2021/06/17 02:27:36;;;;;;;7.05;3.75;;;;;;;;;;5075417;28;20055;-65
2021/06/17 02:30:10;;;;;;;4.93;3.33;;;;;;;;;;5075300;28;20083;-65
2021/06/17 02:32:40;;;;;;;5.95;3.63;;;;;;;;;;5093136;28;20097;-64
2021/06/17 02:35:08;;;;;;;4.13;3.67;;;;;;;;;;5075286;28;20079;-66
2021/06/17 02:37:35;;;;;;;5.22;3.85;;;;;;;;;;5074290;28;20059;-64
2021/06/17 02:40:03;;;;;;;4.30;3.60;;;;;;;;;;5074817;28;20071;-65
2021/06/17 02:42:30;;;;;;;5.50;3.22;;;;;;;;;;5091499;28;20098;-65
2021/06/17 02:44:57;;;;;;;4.68;3.53;;;;;;;;;;5074997;28;20083;-65
2021/06/17 02:47:23;;;;;;;3.88;3.40;;;;;;;;;;5091632;28;20510;-65
2021/06/17 02:49:50;;;;;;;3.92;3.53;;;;;;;;;;5066111;28;20083;-66
2021/06/17 02:52:16;;;;;;;3.65;3.22;;;;;;;;;;5072295;28;20072;-65
2021/06/17 02:54:43;;;;;;;4.35;3.95;;;;;;;;;;5054651;28;20579;-65
2021/06/17 02:57:41;;;;;;;4.13;3.38;;;;;;;;;;5074093;28;20055;-64
2021/06/17 03:00:10;;;;;;;4.45;3.38;;;;;;;;;;5092588;28;20071;-64
2021/06/17 03:02:38;;;;;;;3.63;3.17;;;;;;;;;;5091284;28;20082;-64
2021/06/17 03:05:08;;;;;;;4.60;3.63;;;;;;;;;;5108499;22;20080;-67
2021/06/17 03:07:37;;;;;;;6.63;3.65;;;;;;;;;;5052036;28;20077;-68
2021/06/17 03:10:08;;;;;;;4.10;3.30;;;;;;;;;;5034819;28;20088;-68
2021/06/17 03:12:36;;;;;;;6.85;3.75;;;;;;;;;;5052040;28;20132;-67
2021/06/17 03:15:05;;;;;;;6.03;3.63;;;;;;;;;;5034563;28;20053;-67
2021/06/17 03:17:37;;;;;;;5.97;3.83;;;;;;;;;;5052118;28;20049;-68
2021/06/17 03:20:05;;;;;;;5.47;3.70;;;;;;;;;;5018204;28;20088;-67
2021/06/17 03:22:32;;;;;;;5.63;3.45;;;;;;;;;;5017972;28;20084;-67
2021/06/17 03:25:02;;;;;;;4.05;3.67;;;;;;;;;;5017938;28;20080;-67
2021/06/17 03:27:29;;;;;;;5.85;3.90;;;;;;;;;;5051875;28;20106;-67
2021/06/17 03:29:55;;;;;;;7.45;3.70;;;;;;;;;;5017822;28;20084;-67
2021/06/17 03:32:26;;;;;;;4.47;3.70;;;;;;;;;;5034295;28;20088;-67
2021/06/17 03:34:52;;;;;;;5.05;4.22;;;;;;;;;;5018366;28;20057;-68
2021/06/17 03:37:20;;;;;;;4.22;3.65;;;;;;;;;;5017980;28;20045;-68
2021/06/17 03:39:47;;;;;;;3.58;3.22;;;;;;;;;;5018154;28;20260;-68
2021/06/17 03:42:15;;;;;;;5.35;4.05;;;;;;;;;;5051715;28;20080;-67
2021/06/17 03:44:42;;;;;;;5.88;4.38;;;;;;;;;;5013934;28;20083;-67
2021/06/17 03:47:10;;;;;;;6.45;4.20;;;;;;;;;;5014286;28;20085;-67
2021/06/17 03:49:37;;;;;;;5.80;3.95;;;;;;;;;;5014498;28;20456;-67
2021/06/17 03:52:04;;;;;;;7.18;4.65;;;;;;;;;;5014240;28;20491;-67
2021/06/17 03:54:31;;;;;;;6.80;4.13;;;;;;;;;;5014022;28;20136;-67
2021/06/17 03:56:59;;;;;;;5.32;4.25;;;;;;;;;;5028750;28;20083;-67
2021/06/17 03:59:28;;;;;;;6.10;3.90;;;;;;;;;;5014061;28;20088;-67
2021/06/17 04:01:55;;;;;;;4.53;4.13;;;;;;;;;;5014064;28;20050;-67
2021/06/17 04:04:24;;;;;;;6.30;4.40;;;;;;;;;;5030456;28;20054;-67
2021/06/17 04:06:57;;;;;;;5.57;4.55;;;;;;;;;;5014653;28;20149;-67
2021/06/17 04:09:32;;;;;;;4.60;4.10;;;;;;;;;;5013923;28;20081;-68
2021/06/17 04:12:09;;;;;;;4.95;4.45;;;;;;;;;;5030139;28;20508;-66
2021/06/17 04:14:38;;;;;;;7.30;4.40;;;;;;;;;;5031377;28;20060;-66
2021/06/17 04:17:05;;;;;;;8.57;4.88;;;;;;;;;;5032740;28;20088;-67
2021/06/17 04:19:31;;;;;;;6.82;4.82;;;;;;;;;;5033643;28;20072;-66
2021/06/17 04:22:00;;;;;;;6.20;4.85;;;;;;;;;;5017214;28;20103;-67
2021/06/17 04:24:27;;;;;;;6.20;5.45;;;;;;;;;;5033292;28;20048;-66
2021/06/17 04:26:54;;;;;;;9.30;5.13;;;;;;;;;;5033437;28;20085;-66
2021/06/17 04:29:21;;;;;;;5.40;4.90;;;;;;;;;;5033692;28;20044;-67
2021/06/17 04:31:51;;;;;;;8.85;5.75;;;;;;;;;;5033338;28;20486;-67
2021/06/17 04:34:19;;;;;;;8.50;5.00;;;;;;;;;;5051062;28;20136;-67
2021/06/17 04:36:46;;;;;;;7.22;4.80;;;;;;;;;;5050850;28;20095;-67
2021/06/17 04:39:13;;;;;;;8.35;5.00;;;;;;;;;;5017418;28;20118;-68
2021/06/17 04:41:44;;;;;;;6.10;4.60;;;;;;;;;;5033334;28;20504;-67
2021/06/17 04:44:11;;;;;;;8.48;4.57;;;;;;;;;;5017697;28;20085;-67
2021/06/17 04:46:38;;;;;;;7.35;5.10;;;;;;;;;;5050789;28;20469;-66
2021/06/17 04:49:09;;;;;;;5.35;4.55;;;;;;;;;;5017172;28;20049;-66
2021/06/17 04:51:36;;;;;;;7.18;5.25;;;;;;;;;;5017922;28;20492;-67
2021/06/17 04:54:06;;;;;;;9.13;5.65;;;;;;;;;;5017137;28;20091;-67
2021/06/17 04:56:32;;;;;;;6.88;5.32;;;;;;;;;;5050817;28;20084;-67
2021/06/17 04:58:59;;;;;;;7.05;4.68;;;;;;;;;;5051045;28;20082;-67
2021/06/17 05:01:26;;;;;;;7.22;5.32;;;;;;;;;;5054208;28;20063;-66
2021/06/17 05:03:53;;;;;;;5.60;4.82;;;;;;;;;;5054352;28;20480;-67
2021/06/17 05:06:20;;;;;;;8.73;4.88;;;;;;;;;;5036732;28;20088;-66
2021/06/17 05:11:31;;;;;;;10.48;4.90;;;;;;;;;;5054501;28;20077;-67
2021/06/17 05:13:58;;;;;;;6.43;4.32;;;;;;;;;;5054537;28;20044;-66
2021/06/17 05:16:24;;;;;;;5.68;5.07;;;;;;;;;;5054218;28;20141;-67
2021/06/17 05:18:51;;;;;;;5.20;4.70;;;;;;;;;;5054217;28;20111;-67
2021/06/17 05:21:18;;;;;;;5.95;4.47;;;;;;;;;;5054468;28;20475;-66
2021/06/17 05:23:44;;;;;;;6.22;4.40;;;;;;;;;;5036295;28;20114;-66
2021/06/17 05:26:11;;;;;;;5.97;4.57;;;;;;;;;;5054027;28;20486;-67
2021/06/17 05:28:37;;;;;;;7.63;4.70;;;;;;;;;;5053792;28;20092;-67
2021/06/17 05:31:07;;;;;;;5.57;5.03;;;;;;;;;;5054052;28;20408;-66
2021/06/17 05:33:33;;;;;;;4.63;4.22;;;;;;;;;;5053559;28;20103;-66
2021/06/17 05:36:01;;;;;;;5.68;5.05;;;;;;;;;;5053871;28;20095;-66
2021/06/17 05:38:30;;;;;;;7.65;4.72;;;;;;;;;;5053637;28;20052;-66
2021/06/17 05:40:57;;;;;;;7.72;4.72;;;;;;;;;;5053582;28;20087;-66
2021/06/17 05:43:24;;;;;;;5.95;4.60;;;;;;;;;;5053639;28;20088;-67
2021/06/17 05:45:50;;;;;;;5.13;4.60;;;;;;;;;;5053393;28;20558;-66
2021/06/17 05:48:17;;;;;;;9.50;4.57;;;;;;;;;;5054010;28;20083;-67
2021/06/17 05:50:43;;;;;;;8.38;5.20;;;;;;;;;;5047917;28;20077;-66
2021/06/17 05:53:10;;;;;;;8.60;5.10;;;;;;;;;;5047643;28;20091;-67
2021/06/17 05:55:37;;;;;;;8.43;4.63;;;;;;;;;;5043789;28;20085;-66
2021/06/17 05:58:03;;;;;;;10.40;5.20;;;;;;;;;;5033785;28;20476;-67
2021/06/17 06:00:30;;;;;;;6.78;4.85;;;;;;;;;;5033398;28;20115;-67
2021/06/17 06:02:56;;;;;;;6.30;4.47;;;;;;;;;;5033273;28;20132;-66
2021/06/17 06:05:23;;;;;;;6.43;3.95;;;;;;;;;;5041000;28;20103;-67
2021/06/17 06:08:00;;;;;;;6.13;4.32;;;;;;;;;;5053352;28;20503;-67
2021/06/17 06:10:26;;;;;;;8.13;3.95;;;;;;;;;;5053051;28;20084;-66
2021/06/17 06:12:53;;;;;;;5.30;3.35;;;;;;;;;;5053072;28;20503;-66
2021/06/17 06:15:21;;;;;;;10.20;3.63;;;;;;;;;;5052815;28;20103;-67
2021/06/17 06:17:48;;;;;;;3.90;3.40;;;;;;;;;;5053011;28;20087;-66
2021/06/17 06:20:14;;;;;;;6.05;3.83;;;;;;;;;;5053069;28;20129;-66
2021/06/17 06:22:42;;;;;;;6.35;3.45;;;;;;;;;;5052723;28;20554;-66
2021/06/17 06:25:09;;;;;;;6.70;3.67;;;;;;;;;;5052986;28;20132;-66
2021/06/17 06:27:36;;;;;;;5.53;4.00;;;;;;;;;;5052720;28;20123;-66
2021/06/17 06:30:03;;;;;;;6.40;3.35;;;;;;;;;;5052950;28;20523;-66
2021/06/17 06:32:30;;;;;;;4.55;3.75;;;;;;;;;;5052647;28;20098;-66
2021/06/17 06:34:58;;;;;;;7.07;4.00;;;;;;;;;;5052534;28;20084;-67
2021/06/17 06:37:26;;;;;;;5.03;3.47;;;;;;;;;;5053304;28;20083;-68
2021/06/17 06:39:53;;;;;;;6.47;4.25;;;;;;;;;;5052122;28;20041;-67
2021/06/17 06:42:19;;;;;;;6.93;4.45;;;;;;;;;;5052474;28;20786;-67
2021/06/17 06:44:46;;;;;;;6.95;4.03;;;;;;;;;;5052376;28;20076;-66
2021/06/17 06:47:12;;;;;;;5.43;3.95;;;;;;;;;;5032968;28;20531;-67
2021/06/17 06:49:39;;;;;;;4.82;3.22;;;;;;;;;;5038886;28;20048;-67
2021/06/17 06:52:08;;;;;;;4.20;3.80;;;;;;;;;;5052325;28;20091;-67
2021/06/17 06:54:35;;;;;;;5.63;3.22;;;;;;;;;;5052421;28;20107;-67
2021/06/17 06:57:02;;;;;;;7.97;3.58;;;;;;;;;;5041661;28;20580;-67
2021/06/17 06:59:28;;;;;;;4.88;3.75;;;;;;;;;;5050154;28;20045;-66
2021/06/17 07:01:56;;;;;;;5.18;3.20;;;;;;;;;;5050857;28;20053;-67
2021/06/17 07:04:22;;;;;;;6.28;3.38;;;;;;;;;;5052285;28;20077;-69
2021/06/17 07:06:49;;;;;;;10.63;3.42;;;;;;;;;;5052021;28;20088;-67
2021/06/17 07:09:16;;;;;;;4.43;3.20;;;;;;;;;;5051732;28;20134;-67
2021/06/17 07:11:43;;;;;;;6.50;3.28;;;;;;;;;;5051908;28;20515;-67
2021/06/17 07:14:10;;;;;;;4.57;2.95;;;;;;;;;;5051821;28;20487;-67
2021/06/17 07:16:36;;;;;;;5.85;3.40;;;;;;;;;;5051793;28;20091;-68
2021/06/17 07:19:06;;;;;;;3.60;2.83;;;;;;;;;;5052088;28;20092;-68
2021/06/17 07:21:33;;;;;;;6.53;3.33;;;;;;;;;;5051669;28;20534;-68
2021/06/17 07:24:00;;;;;;;5.15;3.40;;;;;;;;;;5043496;28;20088;-69
2021/06/17 07:26:27;;;;;;;5.65;3.70;;;;;;;;;;5052183;28;20103;-69
2021/06/17 07:28:55;;;;;;;6.20;4.10;;;;;;;;;;5052931;28;20092;-70
2021/06/17 07:31:22;;;;;;;5.40;4.20;;;;;;;;;;5055358;28;20056;-68
2021/06/17 07:33:49;;;;;;;4.00;3.60;;;;;;;;;;5053810;28;20393;-69
2021/06/17 07:36:17;;;;;;;4.50;3.05;;;;;;;;;;5054220;28;20464;-69
2021/06/17 07:38:44;;;;;;;7.55;3.13;;;;;;;;;;5053974;28;20084;-68
2021/06/17 07:41:10;;;;;;;6.07;3.75;;;;;;;;;;5054051;28;20080;-69
2021/06/17 07:43:37;;;;;;;4.82;3.40;;;;;;;;;;5053690;28;20088;-68
2021/06/17 07:46:04;;;;;;;6.45;3.50;;;;;;;;;;5054156;28;20084;-69
2021/06/17 07:48:32;;;;;;;4.10;3.42;;;;;;;;;;5053808;28;20051;-69
2021/06/17 07:50:59;;;;;;;10.50;2.83;;;;;;;;;;5053857;28;20095;-69
2021/06/17 07:53:26;;;;;;;3.45;2.78;;;;;;;;;;5052779;28;20099;-69
2021/06/17 07:55:52;;;;;;;4.25;2.80;;;;;;;;;;5053506;28;20088;-69
2021/06/17 07:58:19;;;;;;;3.08;2.88;;;;;;;;;;5054119;28;20083;-69
2021/06/17 08:00:46;;;;;;;3.17;2.88;;;;;;;;;;5053940;28;20077;-69
2021/06/17 08:03:12;;;;;;;5.32;3.10;;;;;;;;;;5053304;28;20063;-69
2021/06/17 08:05:39;;;;;;;3.20;2.90;;;;;;;;;;5053325;28;20518;-69
2021/06/17 08:08:07;;;;;;;4.22;2.83;;;;;;;;;;5053741;28;20092;-69
2021/06/17 08:10:34;;;;;;;5.47;2.97;;;;;;;;;;5053495;28;20068;-69
2021/06/17 08:13:01;;;;;;;4.40;2.83;;;;;;;;;;5054052;28;20045;-69
2021/06/17 08:15:27;;;;;;;5.25;3.17;;;;;;;;;;5054544;28;20404;-69
2021/06/17 08:17:54;;;;;;;6.15;3.05;;;;;;;;;;5054150;28;20048;-69
2021/06/17 08:20:21;;;;;;;4.15;3.30;;;;;;;;;;5053674;28;20495;-68
2021/06/17 08:22:47;;;;;;;7.53;3.58;;;;;;;;;;5052301;28;20103;-68
2021/06/17 08:25:14;;;;;;;5.47;3.20;;;;;;;;;;5051916;28;20091;-68
2021/06/17 08:27:42;;;;;;;4.28;2.97;;;;;;;;;;5052357;28;20088;-68
2021/06/17 08:30:11;;;;;;;4.15;2.47;;;;;;;;;;5053686;28;20128;-68
2021/06/17 08:32:38;;;;;;;3.17;2.88;;;;;;;;;;5049844;28;20263;-69
2021/06/17 08:35:05;;;;;;;5.43;2.88;;;;;;;;;;5054603;28;20065;-68
2021/06/17 08:37:32;;;;;;;6.20;3.20;;;;;;;;;;5049348;28;20077;-68
2021/06/17 08:39:59;;;;;;;5.07;2.92;;;;;;;;;;5049059;28;20080;-69
2021/06/17 08:42:27;;;;;;;7.63;3.83;;;;;;;;;;5051903;28;20068;-67
2021/06/17 08:44:55;;;;;;;6.28;3.38;;;;;;;;;;5044533;28;20464;-68
2021/06/17 08:47:22;;;;;;;4.80;3.75;;;;;;;;;;5048748;28;20072;-68
2021/06/17 08:49:51;;;;;;;6.28;2.85;;;;;;;;;;5044784;28;20053;-68
2021/06/17 08:52:19;;;;;;;4.15;2.85;;;;;;;;;;5053824;28;20075;-68
2021/06/17 08:54:47;;;;;;;3.47;2.88;;;;;;;;;;5047868;28;20114;-68
2021/06/17 08:57:14;;;;;;;3.50;3.15;;;;;;;;;;5043192;28;20092;-68
2021/06/17 08:59:41;;;;;;;7.10;2.83;;;;;;;;;;5044946;28;20080;-68
2021/06/17 09:02:08;;;;;;;3.72;3.25;;;;;;;;;;5045751;28;20094;-68
2021/06/17 09:04:35;;;;;;;3.30;3.00;;;;;;;;;;5043015;28;20049;-68
2021/06/17 09:07:09;;;;;;;3.63;2.72;;;;;;;;;;5103279;22;20036;-64
2021/06/17 09:09:41;;;;;;;3.70;3.40;;;;;;;;;;5078803;28;20091;-64
2021/06/17 09:12:13;;;;;;;5.03;3.25;;;;;;;;;;5088583;28;20456;-64
2021/06/17 09:14:59;;;;;;;7.13;4.20;;;;;;;;;;5084056;28;20047;-66
2021/06/17 09:17:26;;;;;;;5.03;3.85;;;;;;;;;;5078763;28;20076;-67
2021/06/17 09:19:55;;;;;;;6.97;3.75;;;;;;;;;;5080443;28;20490;-65
2021/06/17 09:22:24;;;;;;;7.78;3.53;;;;;;;;;;5081948;28;20047;-68
2021/06/17 09:24:52;;;;;;;3.83;2.85;;;;;;;;;;5073210;28;20086;-65
2021/06/17 09:27:31;;;;;;;4.22;2.67;;;;;;;;;;5079559;28;20570;-65
2021/06/17 09:30:09;;;;;;;5.78;3.33;;;;;;;;;;5062922;28;20044;-64
2021/06/17 09:32:41;;;;;;;6.68;3.50;;;;;;;;;;5082547;28;20047;-64
2021/06/17 09:35:24;;;;;;;8.27;3.42;;;;;;;;;;5069139;28;20121;-65
2021/06/17 09:38:00;;;;;;;7.28;3.03;;;;;;;;;;5078162;28;20060;-65
2021/06/17 09:40:34;;;;;;;4.28;2.50;;;;;;;;;;5064048;28;20040;-65
2021/06/17 09:43:34;;;;;;;4.80;3.13;;;;;;;;;;5085837;28;20075;-65
2021/06/17 09:46:05;;;;;;;4.82;2.72;;;;;;;;;;5080710;28;20044;-65
2021/06/17 09:48:49;;;;;;;7.00;2.70;;;;;;;;;;5064732;28;20138;-67
2021/06/17 09:51:35;;;;;;;4.43;3.17;;;;;;;;;;5083669;28;20049;-65
2021/06/17 09:54:26;;;;;;;7.82;3.10;;;;;;;;;;5082423;28;20059;-65
2021/06/17 09:57:02;;;;;;;4.80;2.97;;;;;;;;;;5087173;28;20056;-65
2021/06/17 09:59:35;;;;;;;3.95;2.85;;;;;;;;;;5081963;28;20078;-67
2021/06/17 10:02:06;;;;;;;5.30;3.10;;;;;;;;;;5063459;28;20052;-67
2021/06/17 10:04:33;;;;;;;7.45;2.90;;;;;;;;;;5081788;28;20045;-65
2021/06/17 10:07:00;;;;;;;4.28;2.67;;;;;;;;;;5085106;28;20437;-65
2021/06/17 10:09:27;;;;;;;6.75;3.10;;;;;;;;;;5087680;28;20456;-65
2021/06/17 10:11:53;;;;;;;5.10;2.90;;;;;;;;;;5082416;28;20854;-65
2021/06/17 10:14:20;;;;;;;4.53;3.05;;;;;;;;;;5080181;28;20473;-65
2021/06/17 10:16:47;;;;;;;4.05;2.85;;;;;;;;;;5081658;28;20066;-65
2021/06/17 10:19:14;;;;;;;3.45;2.40;;;;;;;;;;5083824;28;20130;-65
2021/06/17 10:21:42;;;;;;;6.65;3.13;;;;;;;;;;5065565;28;20048;-66
2021/06/17 10:24:13;;;;;;;4.10;3.45;;;;;;;;;;5082708;28;20063;-66
2021/06/17 10:26:47;;;;;;;4.47;3.00;;;;;;;;;;5075155;28;20048;-66
2021/06/17 10:29:26;;;;;;;3.65;3.20;;;;;;;;;;5079474;28;20044;-66
2021/06/17 10:31:53;;;;;;;5.63;3.10;;;;;;;;;;5078457;28;20094;-66
2021/06/17 10:34:28;;;;;;;5.25;3.60;;;;;;;;;;5079054;28;20093;-66
2021/06/17 10:37:15;;;;;;;3.40;2.63;;;;;;;;;;5079457;28;20102;-66
2021/06/17 10:39:48;;;;;;;7.38;3.30;;;;;;;;;;5083265;28;20135;-66
2021/06/17 10:42:36;;;;;;;3.30;3.00;;;;;;;;;;5080272;28;20185;-66
2021/06/17 10:45:13;;;;;;;4.00;2.92;;;;;;;;;;5084346;28;20052;-66
2021/06/17 10:50:20;;;;;;;4.03;3.13;;;;;;;;;;5081204;28;20082;-66
2021/06/17 10:52:53;;;;;;;5.63;3.17;;;;;;;;;;5081372;28;20567;-66
2021/06/17 10:55:24;;;;;;;4.20;3.53;;;;;;;;;;5066339;28;20059;-66
2021/06/17 10:57:51;;;;;;;3.97;3.25;;;;;;;;;;5078799;28;20044;-66
2021/06/17 11:00:28;;;;;;;5.10;3.53;;;;;;;;;;5081623;28;20079;-66
2021/06/17 11:03:00;;;;;;;5.30;2.80;;;;;;;;;;5080290;28;20102;-66
2021/06/17 11:05:30;;;;;;;3.72;3.00;;;;;;;;;;5086410;28;20429;-66
2021/06/17 11:08:22;;;;;;;5.82;3.22;;;;;;;;;;5082545;28;20040;-66
2021/06/17 11:10:59;;;;;;;4.03;3.10;;;;;;;;;;5078730;28;20097;-66
2021/06/17 11:13:26;;;;;;;5.10;3.03;;;;;;;;;;5079288;28;20517;-65
2021/06/17 11:15:53;;;;;;;3.30;2.90;;;;;;;;;;5086891;28;20056;-66
2021/06/17 11:18:49;;;;;;;6.38;2.60;;;;;;;;;;5080330;28;20052;-66
2021/06/17 11:21:22;;;;;;;7.65;3.10;;;;;;;;;;5079312;28;20048;-66
2021/06/17 11:23:53;;;;;;;3.83;2.47;;;;;;;;;;5080489;28;20084;-66
2021/06/17 11:26:48;;;;;;;3.63;3.10;;;;;;;;;;5079065;28;20040;-67
2021/06/17 11:29:33;;;;;;;6.28;3.35;;;;;;;;;;5063907;28;20047;-67
2021/06/17 11:32:00;;;;;;;3.85;3.55;;;;;;;;;;5077714;28;20068;-67
2021/06/17 11:34:29;;;;;;;4.57;3.08;;;;;;;;;;5080815;28;20066;-66
2021/06/17 11:37:03;;;;;;;6.07;3.20;;;;;;;;;;5079267;28;20075;-66
2021/06/17 11:39:34;;;;;;;6.47;3.35;;;;;;;;;;5063660;28;20048;-68
2021/06/17 11:42:03;;;;;;;3.65;3.25;;;;;;;;;;5076850;28;20495;-68
2021/06/17 11:44:31;;;;;;;3.65;3.30;;;;;;;;;;5078550;28;20045;-67
2021/06/17 11:47:09;;;;;;;5.82;3.20;;;;;;;;;;5082695;28;20051;-67
2021/06/17 11:49:40;;;;;;;5.10;3.15;;;;;;;;;;5079802;28;20049;-66
2021/06/17 11:52:15;;;;;;;4.97;3.10;;;;;;;;;;5092315;28;20083;-66
2021/06/17 11:54:42;;;;;;;5.63;2.83;;;;;;;;;;5078848;28;20055;-67
2021/06/17 11:57:09;;;;;;;3.20;2.90;;;;;;;;;;5077950;28;20087;-65
2021/06/17 11:59:40;;;;;;;5.82;3.00;;;;;;;;;;5078825;28;20395;-65
2021/06/17 12:02:16;;;;;;;4.90;3.30;;;;;;;;;;5077344;28;20049;-67
2021/06/17 12:05:06;;;;;;;5.50;3.13;;;;;;;;;;5076188;28;20051;-65
2021/06/17 12:07:37;;;;;;;7.45;3.60;;;;;;;;;;5091946;28;20086;-65
2021/06/17 12:10:27;;;;;;;4.75;3.30;;;;;;;;;;5083565;28;20044;-65
2021/06/17 12:12:58;;;;;;;5.57;3.08;;;;;;;;;;5079726;28;20059;-65
2021/06/17 12:15:29;;;;;;;5.38;3.33;;;;;;;;;;5087188;28;20052;-65
2021/06/17 12:18:00;;;;;;;5.15;3.00;;;;;;;;;;5086606;28;20518;-65
2021/06/17 12:20:49;;;;;;;3.42;2.85;;;;;;;;;;5084848;28;20466;-65
2021/06/17 12:23:23;;;;;;;2.97;2.70;;;;;;;;;;5084106;28;20076;-65
2021/06/17 12:26:05;;;;;;;3.05;2.75;;;;;;;;;;5083283;28;20585;-65
2021/06/17 12:28:48;;;;;;;3.17;2.88;;;;;;;;;;5086115;28;20048;-65
2021/06/17 12:31:28;;;;;;;2.75;2.47;;;;;;;;;;5084296;28;20453;-65
2021/06/17 12:34:11;;;;;;;3.90;2.78;;;;;;;;;;5082605;28;20384;-65
2021/06/17 12:36:37;;;;;;;3.67;2.63;;;;;;;;;;5082136;28;20040;-65
2021/06/17 12:39:18;;;;;;;4.85;3.13;;;;;;;;;;5085291;28;20079;-65
2021/06/17 12:41:47;;;;;;;2.65;2.45;;;;;;;;;;5084537;28;20495;-65
2021/06/17 12:44:53;;;;;;;4.03;2.40;;;;;;;;;;5081818;28;20078;-65
2021/06/17 12:47:24;;;;;;;4.18;2.67;;;;;;;;;;5044780;28;20557;-65
2021/06/17 12:52:38;;;;;;;2.80;2.53;;;;;;;;;;5060606;28;20079;-65
2021/06/17 12:55:06;;;;;;;3.25;2.50;;;;;;;;;;5083832;28;20125;-65
2021/06/17 12:57:33;;;;;;;2.67;2.03;;;;;;;;;;5086170;28;20075;-65
2021/06/17 13:00:04;;;;;;;4.43;2.35;;;;;;;;;;5083676;28;20080;-65
2021/06/17 13:02:31;;;;;;;3.85;2.30;;;;;;;;;;5068506;28;20097;-65
2021/06/17 13:05:16;;;;;;;3.22;2.33;;;;;;;;;;5086096;28;20079;-65
2021/06/17 13:07:58;;;;;;;4.25;2.30;;;;;;;;;;5082456;28;20056;-65
2021/06/17 13:10:26;;;;;;;5.90;3.13;;;;;;;;;;5083439;28;20049;-67
2021/06/17 13:12:54;;;;;;;4.93;3.75;;;;;;;;;;5089679;28;20122;-65
2021/06/17 13:15:23;;;;;;;4.00;2.75;;;;;;;;;;5083886;28;20406;-65
2021/06/17 13:17:53;;;;;;;2.10;1.90;;;;;;;;;;5086226;28;20109;-65
2021/06/17 13:20:30;;;;;;;2.10;2.00;;;;;;;;;;5081894;28;20056;-65
2021/06/17 13:22:58;;;;;;;2.75;2.50;;;;;;;;;;5081829;28;20045;-65
2021/06/17 13:25:30;;;;;;;3.83;2.50;;;;;;;;;;5084491;28;20089;-65
2021/06/17 13:27:59;;;;;;;4.88;3.63;;;;;;;;;;5079687;28;20044;-66
2021/06/17 13:30:30;;;;;;;3.40;2.80;;;;;;;;;;5063347;28;20079;-68
2021/06/17 13:32:59;;;;;;;3.03;2.00;;;;;;;;;;5079913;28;20044;-65
2021/06/17 13:35:25;;;;;;;2.42;2.22;;;;;;;;;;5084705;28;20075;-66
2021/06/17 13:37:52;;;;;;;3.17;1.92;;;;;;;;;;5081426;28;20515;-65
2021/06/17 13:40:36;;;;;;;2.10;1.90;;;;;;;;;;5078137;28;20564;-66
2021/06/17 13:43:02;;;;;;;2.50;2.30;;;;;;;;;;5081655;28;20084;-67
2021/06/17 13:45:29;;;;;;;3.53;2.00;;;;;;;;;;5080178;28;20138;-69
2021/06/17 13:47:56;;;;;;;3.78;2.25;;;;;;;;;;5077857;28;20060;-69
2021/06/17 13:50:24;;;;;;;4.07;2.03;;;;;;;;;;5080292;28;20087;-67
2021/06/17 13:52:51;;;;;;;3.58;2.47;;;;;;;;;;5082148;28;20053;-68
2021/06/17 13:55:18;;;;;;;3.25;2.40;;;;;;;;;;5080982;28;20071;-71
2021/06/17 13:57:46;;;;;;;3.15;2.20;;;;;;;;;;5077337;28;20479;-70
2021/06/17 14:00:14;;;;;;;5.72;3.28;;;;;;;;;;5065471;28;20076;-70
2021/06/17 14:02:41;;;;;;;3.80;2.25;;;;;;;;;;5062972;28;20103;-69
2021/06/17 14:05:09;;;;;;;5.13;2.53;;;;;;;;;;5098437;28;20090;-68
2021/06/17 14:07:36;;;;;;;1.83;1.63;;;;;;;;;;5080911;28;20048;-67
2021/06/17 14:10:05;;;;;;;3.58;2.47;;;;;;;;;;5079268;28;20511;-68
2021/06/17 14:12:31;;;;;;;2.45;2.00;;;;;;;;;;5060654;28;20068;-67
2021/06/17 14:14:58;;;;;;;2.50;2.05;;;;;;;;;;5076518;28;20051;-68
2021/06/17 14:17:25;;;;;;;2.60;2.00;;;;;;;;;;5077666;28;20079;-67
2021/06/17 14:19:52;;;;;;;2.63;2.03;;;;;;;;;;5075514;28;20101;-67
2021/06/17 14:22:19;;;;;;;2.83;1.98;;;;;;;;;;5083865;28;20520;-66
2021/06/17 14:24:45;;;;;;;4.75;2.42;;;;;;;;;;5076368;28;20067;-66
2021/06/17 14:27:12;;;;;;;4.88;2.13;;;;;;;;;;5078060;28;20098;-65
2021/06/17 14:29:38;;;;;;;2.72;2.10;;;;;;;;;;5074559;28;20071;-66
2021/06/17 14:32:05;;;;;;;2.78;2.20;;;;;;;;;;5077868;28;20133;-66
2021/06/17 14:34:32;;;;;;;7.32;2.08;;;;;;;;;;5075418;28;20056;-66
2021/06/17 14:36:59;;;;;;;3.72;2.00;;;;;;;;;;5077477;28;20080;-66
2021/06/17 14:39:25;;;;;;;5.88;2.38;;;;;;;;;;5076591;28;20123;-65
2021/06/17 14:41:52;;;;;;;4.07;2.35;;;;;;;;;;5081149;28;20083;-67
2021/06/17 14:44:19;;;;;;;2.42;2.22;;;;;;;;;;5076235;28;20080;-68
2021/06/17 14:46:46;;;;;;;8.10;3.08;;;;;;;;;;5077636;28;20064;-68
2021/06/17 14:49:13;;;;;;;5.65;2.38;;;;;;;;;;5076148;28;20423;-67
2021/06/17 14:51:40;;;;;;;3.78;2.70;;;;;;;;;;5079559;28;20074;-68
2021/06/17 14:54:08;;;;;;;5.55;2.00;;;;;;;;;;5077491;28;20079;-68
2021/06/17 14:56:35;;;;;;;8.45;2.63;;;;;;;;;;5061014;28;20093;-66
2021/06/17 14:59:08;;;;;;;3.78;2.35;;;;;;;;;;5078724;28;20552;-66
2021/06/17 15:01:35;;;;;;;4.80;2.50;;;;;;;;;;5077294;28;20418;-66
2021/06/17 15:04:05;;;;;;;4.93;2.70;;;;;;;;;;5093921;28;20052;-66
2021/06/17 15:06:32;;;;;;;2.50;2.30;;;;;;;;;;5078035;28;20040;-66